Time;durP1;ratioP1;P1;durP2;ratioP2;P2;SDS_P1;SDS_P2;PMS_P1;PMS_P2;Temp;Humidity;BMP_temperature;BMP_pressure;BME280_temperature;BME280_humidity;BME280_pressure;Samples;Min_cycle;Max_cycle;Signal;HPM_P1;HPM_P2
2022/04/04 00:01:51;;;;;;;;;11.75;11.25;;;;;6.71;58.49;101578.69;4769481;29;46285;-83
2022/04/04 00:04:16;;;;;;;;;14.75;9.75;;;;;6.71;57.74;101581.31;4769521;29;46055;-80
2022/04/04 00:10:04;;;;;;;;;12.25;9.75;;;;;6.71;58.81;101581.31;4769305;29;45514;-83
2022/04/04 00:12:30;;;;;;;;;10.00;9.75;;;;;6.67;58.31;101573.69;4769232;29;45841;-82
2022/04/04 00:14:56;;;;;;;;;12.25;11.00;;;;;6.68;58.71;101585.78;4769499;29;45641;-83
2022/04/04 00:17:22;;;;;;;;;13.00;12.00;;;;;6.67;58.54;101584.94;4768956;29;45518;-85
2022/04/04 00:19:47;;;;;;;;;12.75;11.50;;;;;6.65;58.76;101581.53;4769671;29;45725;-83
2022/04/04 00:25:35;;;;;;;;;14.75;12.25;;;;;6.59;58.70;101576.56;4768921;29;46142;-83
2022/04/04 00:28:00;;;;;;;;;15.75;10.50;;;;;6.57;59.11;101581.00;4769572;29;45502;-82
2022/04/04 00:30:26;;;;;;;;;12.00;12.00;;;;;6.57;59.14;101570.59;4769485;29;45712;-82
2022/04/04 00:32:52;;;;;;;;;15.00;13.00;;;;;6.57;58.82;101562.78;4769496;29;46145;-84
2022/04/04 00:35:17;;;;;;;;;14.25;12.75;;;;;6.57;58.96;101570.59;4769287;29;45449;-83
2022/04/04 00:37:43;;;;;;;;;14.00;12.00;;;;;6.54;58.86;101562.88;4753676;29;45732;-82
2022/04/04 00:40:09;;;;;;;;;12.00;10.50;;;;;6.55;58.66;101566.34;4770064;29;45633;-83
2022/04/04 00:42:34;;;;;;;;;11.25;9.50;;;;;6.53;58.87;101558.59;4770156;29;46847;-82
2022/04/04 00:45:00;;;;;;;;;12.00;9.75;;;;;6.54;58.48;101557.69;4769622;29;45985;-83
2022/04/04 00:47:26;;;;;;;;;13.00;12.25;;;;;6.50;58.53;101557.88;4770152;29;45771;-83
2022/04/04 00:49:51;;;;;;;;;12.50;10.00;;;;;6.53;58.87;101561.19;4769916;29;45697;-83
2022/04/04 00:55:38;;;;;;;;;10.00;9.25;;;;;6.46;58.57;101566.69;4770182;29;46262;-83
2022/04/04 00:58:05;;;;;;;;;10.25;10.00;;;;;6.42;58.19;101557.31;4753776;29;45700;-82
2022/04/04 01:00:31;;;;;;;;;12.75;9.75;;;;;6.40;58.29;101561.72;4769627;29;45633;-82
2022/04/04 01:02:56;;;;;;;;;10.50;9.00;;;;;6.34;58.42;101560.22;4752886;29;47698;-82
2022/04/04 01:05:22;;;;;;;;;7.50;7.00;;;;;6.29;58.55;101557.78;4752853;29;48249;-83
2022/04/04 01:11:10;;;;;;;;;10.50;8.50;;;;;6.23;58.51;101559.78;4770382;29;45613;-82
2022/04/04 01:13:35;;;;;;;;;11.00;9.75;;;;;6.22;58.51;101555.47;4770517;29;45631;-81
2022/04/04 01:16:02;;;;;;;;;8.00;8.00;;;;;6.20;58.62;101554.69;4769443;29;46524;-81
2022/04/04 01:18:28;;;;;;;;;9.00;9.00;;;;;6.18;58.57;101554.75;4753259;29;45656;-80
2022/04/04 01:20:53;;;;;;;;;2.50;2.00;;;;;6.17;58.70;101560.84;4769138;29;45602;-83
2022/04/04 01:23:24;;;;;;;;;9.50;9.00;;;;;6.11;58.41;101550.66;4768889;29;46590;-81
2022/04/04 01:25:49;;;;;;;;;9.75;8.75;;;;;6.13;58.50;101546.28;4768984;29;45994;-82
2022/04/04 01:28:15;;;;;;;;;9.00;8.00;;;;;6.12;58.80;101547.16;4768959;29;45586;-82
2022/04/04 01:30:41;;;;;;;;;8.25;7.75;;;;;6.12;58.48;101544.56;4768369;29;45627;-82
2022/04/04 01:33:06;;;;;;;;;12.00;9.00;;;;;6.11;58.56;101536.81;4768914;29;46345;-81
2022/04/04 01:35:33;;;;;;;;;12.00;11.50;;;;;6.12;58.97;101539.38;4768711;29;45660;-82
2022/04/04 01:41:46;;;;;;;;;11.00;8.25;;;;;6.09;58.70;101533.44;4767176;29;45784;-81
2022/04/04 01:44:12;;;;;;;;;8.50;8.00;;;;;6.05;59.12;101530.09;4751706;29;48199;-82
2022/04/04 01:46:38;;;;;;;;;10.00;8.75;;;;;6.06;58.55;101526.59;4767952;29;45672;-82
2022/04/04 01:49:05;;;;;;;;;8.75;8.00;;;;;6.03;58.76;101528.47;4768441;29;45749;-81
2022/04/04 01:51:33;;;;;;;;;11.75;9.50;;;;;6.04;58.81;101530.16;4768355;29;45651;-83
2022/04/04 01:53:59;;;;;;;;;8.25;7.50;;;;;5.96;58.49;101516.59;4751700;29;47594;-81
2022/04/04 01:56:24;;;;;;;;;8.25;7.50;;;;;5.92;59.17;101521.06;4768345;29;45606;-82
2022/04/04 01:58:50;;;;;;;;;10.50;8.75;;;;;5.94;58.61;101529.63;4768639;29;45476;-81
2022/04/04 02:01:22;;;;;;;;;7.00;7.00;;;;;5.89;58.46;101524.59;4768432;29;45620;-82
2022/04/04 02:03:50;;;;;;;;;6.00;6.00;;;;;5.89;58.62;101521.16;4768097;29;45535;-81
2022/04/04 02:06:18;;;;;;;;;8.50;6.25;;;;;5.83;58.42;101517.00;4751601;29;47348;-82
2022/04/04 02:12:06;;;;;;;;;8.00;7.25;;;;;5.80;58.54;101518.88;4767815;29;45569;-83
2022/04/04 02:14:32;;;;;;;;;5.50;5.00;;;;;5.74;58.74;101506.94;4767681;29;45754;-82
2022/04/04 02:16:58;;;;;;;;;6.00;5.50;;;;;5.71;58.75;101512.28;4767903;29;45612;-82
2022/04/04 02:19:23;;;;;;;;;7.50;5.00;;;;;5.69;58.81;101514.06;4767854;29;45629;-80
2022/04/04 02:21:48;;;;;;;;;5.75;5.00;;;;;5.63;58.65;101498.69;4768227;29;45732;-82
2022/04/04 02:24:14;;;;;;;;;8.00;6.25;;;;;5.63;58.41;101498.69;4751284;29;48615;-81
2022/04/04 02:26:39;;;;;;;;;7.00;5.75;;;;;5.64;58.88;101496.94;4767382;29;45839;-81
2022/04/04 02:29:05;;;;;;;;;5.75;5.75;;;;;5.62;58.59;101497.00;4767835;29;45702;-82
2022/04/04 02:31:30;;;;;;;;;7.75;6.50;;;;;5.61;58.67;101484.06;4767675;29;45630;-81
2022/04/04 02:33:56;;;;;;;;;8.00;6.00;;;;;5.63;58.66;101496.09;4767449;29;45660;-81
2022/04/04 02:36:21;;;;;;;;;8.00;7.00;;;;;5.63;59.07;101485.69;4767573;29;46151;-82
2022/04/04 02:42:09;;;;;;;;;5.25;5.00;;;;;5.65;58.73;101489.09;4769104;29;45767;-81
2022/04/04 02:44:35;;;;;;;;;8.50;5.50;;;;;5.64;59.03;101492.59;4770411;29;45625;-83
2022/04/04 02:47:00;;;;;;;;;7.75;5.75;;;;;5.64;58.80;101495.19;4770321;29;46223;-82
2022/04/04 02:49:28;;;;;;;;;7.75;6.25;;;;;5.63;59.17;101483.09;4770665;29;45678;-83
2022/04/04 02:51:55;;;;;;;;;8.75;6.50;;;;;5.62;58.88;101485.75;4770466;29;45769;-83
2022/04/04 02:57:42;;;;;;;;;8.00;5.00;;;;;5.57;59.17;101480.72;4770156;29;46089;-83
2022/04/04 03:00:09;;;;;;;;;3.50;2.00;;;;;5.56;59.64;101484.22;4770102;29;45523;-84
2022/04/04 03:02:35;;;;;;;;;6.25;6.25;;;;;5.52;59.56;101486.97;4770429;29;45645;-83
2022/04/04 03:05:00;;;;;;;;;6.00;5.75;;;;;5.47;59.37;101475.00;4770271;29;46268;-83
2022/04/04 03:07:26;;;;;;;;;8.25;7.75;;;;;5.42;59.17;101474.31;4770429;29;45595;-83
2022/04/04 03:09:51;;;;;;;;;8.50;8.00;;;;;5.43;59.73;101481.22;4754173;29;45615;-83
2022/04/04 03:12:18;;;;;;;;;8.25;7.00;;;;;5.37;59.86;101468.44;4770862;29;45444;-82
2022/04/04 03:14:44;;;;;;;;;10.50;9.50;;;;;5.35;60.01;101479.78;4770537;29;45713;-83
2022/04/04 03:17:10;;;;;;;;;8.50;8.00;;;;;5.28;60.08;101470.53;4770034;29;45633;-82
2022/04/04 03:19:35;;;;;;;;;9.00;8.50;;;;;5.24;60.28;101476.72;4770146;29;45581;-82
2022/04/04 03:22:01;;;;;;;;;8.75;8.75;;;;;5.17;60.52;101470.91;4770093;29;45616;-82
2022/04/04 03:27:50;;;;;;;;;11.00;10.25;;;;;5.08;60.52;101464.28;4769669;29;46182;-83
2022/04/04 03:30:18;;;;;;;;;10.00;8.00;;;;;5.10;60.62;101464.22;4753185;29;45705;-83
2022/04/04 03:32:45;;;;;;;;;12.00;9.25;;;;;5.08;60.88;101459.06;4770024;29;45476;-81
2022/04/04 03:35:14;;;;;;;;;15.00;11.00;;;;;5.08;60.54;101455.63;4769745;29;46522;-83
2022/04/04 03:37:41;;;;;;;;;14.00;10.50;;;;;5.06;60.52;101453.09;4769779;29;46033;-83
2022/04/04 03:40:09;;;;;;;;;10.75;6.25;;;;;5.06;60.68;101452.25;4753505;29;45983;-84
2022/04/04 03:42:37;;;;;;;;;10.50;8.50;;;;;5.02;60.33;101448.91;4769607;29;45579;-82
2022/04/04 03:45:04;;;;;;;;;12.00;11.00;;;;;5.00;60.19;101447.28;4769663;29;46444;-82
2022/04/04 03:47:30;;;;;;;;;12.00;10.75;;;;;4.98;60.82;101449.06;4769792;29;46225;-82
2022/04/04 03:49:55;;;;;;;;;11.25;10.00;;;;;4.97;60.99;101443.00;4769706;29;45515;-83
2022/04/04 03:52:21;;;;;;;;;10.00;8.00;;;;;4.93;60.46;101438.84;4752255;29;45898;-83
2022/04/04 03:58:09;;;;;;;;;14.25;11.75;;;;;4.97;60.64;101432.63;4769095;29;46195;-83
2022/04/04 04:00:36;;;;;;;;;14.75;11.50;;;;;4.96;60.84;101432.72;4769323;29;45838;-83
2022/04/04 04:03:02;;;;;;;;;8.25;8.00;;;;;4.95;60.49;101438.78;4753011;29;45824;-83
2022/04/04 04:05:27;;;;;;;;;16.25;12.50;;;;;4.90;60.89;101420.78;4769547;29;46645;-83
2022/04/04 04:07:53;;;;;;;;;11.25;11.00;;;;;4.92;60.89;101426.75;4769911;29;45506;-82
2022/04/04 04:13:45;;;;;;;;;11.50;10.75;;;;;4.92;60.78;101428.50;4769477;29;45694;-82
2022/04/04 04:16:13;;;;;;;;;11.50;11.00;;;;;4.90;60.78;101423.38;4769512;29;45514;-82
2022/04/04 04:18:41;;;;;;;;;9.75;8.75;;;;;4.91;60.94;101416.44;4753218;29;48127;-82
2022/04/04 04:21:09;;;;;;;;;17.50;12.50;;;;;4.91;61.24;101421.63;4768989;29;45853;-81
2022/04/04 04:23:37;;;;;;;;;14.75;11.75;;;;;4.92;61.07;101412.91;4769183;29;45768;-83
2022/04/04 04:26:04;;;;;;;;;15.00;11.00;;;;;4.93;60.76;101409.44;4768531;29;46196;-83
2022/04/04 04:28:30;;;;;;;;;13.00;11.00;;;;;4.95;60.84;101418.88;4768998;29;46583;-82
2022/04/04 04:30:56;;;;;;;;;14.00;11.75;;;;;4.93;61.17;101404.25;4768743;29;45677;-83
2022/04/04 04:33:22;;;;;;;;;14.50;12.50;;;;;4.90;61.04;101406.97;4769115;29;45581;-83
2022/04/04 04:35:48;;;;;;;;;13.25;12.50;;;;;4.94;61.12;101411.13;4769057;29;46649;-82
2022/04/04 04:38:13;;;;;;;;;12.25;11.00;;;;;4.95;60.89;101408.50;4769071;29;45674;-83
2022/04/04 04:44:14;;;;;;;;;12.25;11.00;;;;;4.93;60.56;101397.31;4767278;29;45679;-83
2022/04/04 04:46:40;;;;;;;;;12.25;11.25;;;;;4.96;60.67;101398.97;4752376;29;48252;-82
2022/04/04 04:49:05;;;;;;;;;13.75;11.75;;;;;4.95;60.55;101389.47;4768585;29;45830;-83
2022/04/04 04:51:31;;;;;;;;;15.50;14.00;;;;;4.96;61.01;101386.81;4752095;29;45820;-82
2022/04/04 04:53:57;;;;;;;;;11.25;11.25;;;;;4.96;60.61;101386.81;4768896;29;45803;-82
2022/04/04 04:56:22;;;;;;;;;15.25;11.00;;;;;4.96;60.82;101388.56;4769155;29;45795;-83
2022/04/04 04:58:48;;;;;;;;;12.00;11.00;;;;;4.98;60.62;101390.19;4769518;29;45839;-83
2022/04/04 05:01:13;;;;;;;;;8.75;8.75;;;;;4.98;60.65;101397.97;4769674;29;45733;-83
2022/04/04 05:03:39;;;;;;;;;11.00;10.00;;;;;4.94;60.40;101386.03;4769673;29;45715;-83
2022/04/04 05:06:05;;;;;;;;;4.75;4.75;;;;;4.92;60.34;101390.41;4769538;29;45602;-83
2022/04/04 05:08:31;;;;;;;;;11.00;10.25;;;;;4.90;60.57;101396.56;4752679;29;47002;-84
2022/04/04 05:14:18;;;;;;;;;11.00;10.50;;;;;4.85;60.45;101398.47;4768406;29;45717;-82
2022/04/04 05:16:45;;;;;;;;;10.25;9.50;;;;;4.82;60.70;101393.38;4768632;29;46502;-83
2022/04/04 05:19:17;;;;;;;;;11.75;9.00;;;;;4.76;61.18;101389.25;4768418;29;45794;-82
2022/04/04 05:21:42;;;;;;;;;13.75;13.00;;;;;4.75;60.87;101395.31;4751935;29;45879;-82
2022/04/04 05:24:08;;;;;;;;;14.75;14.00;;;;;4.64;60.74;101384.50;4769206;29;45886;-82
2022/04/04 05:26:34;;;;;;;;;13.50;12.25;;;;;4.67;61.08;101391.31;4768310;29;46465;-82
2022/04/04 05:29:04;;;;;;;;;14.00;11.75;;;;;4.59;60.80;101382.03;4756781;29;47204;-82
2022/04/04 05:31:30;;;;;;;;;14.00;12.50;;;;;4.60;60.90;101388.06;4753515;29;45554;-83
2022/04/04 05:33:57;;;;;;;;;13.25;11.25;;;;;4.62;60.98;101391.47;4752882;29;45891;-82
2022/04/04 05:36:27;;;;;;;;;14.75;12.25;;;;;4.63;60.84;101395.78;4768731;29;45716;-83
2022/04/04 05:38:52;;;;;;;;;12.00;12.00;;;;;4.60;61.08;101390.66;4752974;29;46189;-83
2022/04/04 05:44:39;;;;;;;;;11.75;9.25;;;;;4.63;61.16;101393.19;4766992;29;45884;-83
2022/04/04 05:47:05;;;;;;;;;12.75;10.75;;;;;4.60;61.29;101377.69;4752678;29;48008;-81
2022/04/04 05:49:30;;;;;;;;;12.75;11.25;;;;;4.60;61.40;101382.88;4768144;29;46220;-82
2022/04/04 05:51:56;;;;;;;;;8.75;7.00;;;;;4.60;61.30;101382.88;4767948;29;45754;-81
2022/04/04 05:54:21;;;;;;;;;10.50;10.50;;;;;4.62;61.33;101383.69;4768112;29;45839;-82
2022/04/04 06:00:13;;;;;;;;;14.00;12.25;;;;;4.65;60.82;101389.63;4767570;29;46403;-83
2022/04/04 06:02:39;;;;;;;;;13.00;11.00;;;;;4.61;61.51;101380.25;4751342;29;45939;-83
2022/04/04 06:05:06;;;;;;;;;12.25;11.00;;;;;4.70;60.98;101386.84;4767813;29;45606;-82
2022/04/04 06:07:32;;;;;;;;;13.75;12.00;;;;;4.72;60.81;101390.25;4767785;29;45660;-82
2022/04/04 06:09:58;;;;;;;;;10.50;8.00;;;;;4.75;61.26;101394.50;4767487;29;46837;-80
2022/04/04 06:12:23;;;;;;;;;10.75;9.25;;;;;4.76;61.13;101386.66;4767869;29;46060;-83
2022/04/04 06:14:49;;;;;;;;;11.25;10.00;;;;;4.78;61.11;101381.41;4768232;29;45814;-82
2022/04/04 06:17:15;;;;;;;;;11.50;11.00;;;;;4.72;61.10;101364.31;4754388;29;47762;-83
2022/04/04 06:19:41;;;;;;;;;8.75;8.25;;;;;4.76;61.19;101368.47;4770992;29;46230;-82
2022/04/04 06:22:20;;;;;;;;;9.25;8.50;;;;;4.81;60.92;101383.88;4771041;29;45670;-87
2022/04/04 06:24:48;;;;;;;;;8.50;7.75;;;;;4.77;61.08;101362.41;4755150;29;45992;-86
2022/04/04 06:30:35;;;;;;;;;11.50;8.25;;;;;4.84;60.78;101365.63;4770989;29;45496;-86
2022/04/04 06:33:04;;;;;;;;;12.25;8.25;;;;;4.93;60.97;101379.13;4754534;29;45685;-86
2022/04/04 06:35:30;;;;;;;;;10.50;10.00;;;;;4.96;60.60;101376.44;4774094;29;45701;-87
2022/04/04 06:37:55;;;;;;;;;11.50;9.25;;;;;4.97;60.78;101359.09;4754254;29;47701;-86
2022/04/04 06:40:21;;;;;;;;;11.00;9.00;;;;;5.08;60.32;101370.78;4754866;29;47899;-87
2022/04/04 06:42:48;;;;;;;;;8.00;6.75;;;;;5.15;60.27;101368.81;4754819;29;45708;-86
2022/04/04 06:45:17;;;;;;;;;9.00;8.00;;;;;5.11;59.96;101359.44;4770664;29;45565;-87
2022/04/04 06:47:43;;;;;;;;;6.75;5.00;;;;;5.18;59.70;101362.69;4770768;29;45799;-86
2022/04/04 06:50:09;;;;;;;;;7.50;6.75;;;;;5.23;59.57;101359.00;4770812;29;45993;-85
2022/04/04 06:52:35;;;;;;;;;8.00;7.25;;;;;5.32;59.15;101370.78;4770824;29;45777;-84
2022/04/04 06:55:01;;;;;;;;;8.00;7.75;;;;;5.34;58.90;101361.22;4754157;29;45695;-85
2022/04/04 07:00:49;;;;;;;;;6.25;6.25;;;;;5.34;58.15;101361.22;4770063;29;46113;-83
2022/04/04 07:03:14;;;;;;;;;8.00;7.00;;;;;5.37;57.55;101368.88;4753805;29;46089;-83
2022/04/04 07:05:40;;;;;;;;;5.00;5.00;;;;;5.35;57.79;101350.72;4770399;29;45805;-83
2022/04/04 07:08:06;;;;;;;;;4.75;3.50;;;;;5.37;56.29;101355.88;4770283;29;45648;-84
2022/04/04 07:10:32;;;;;;;;;7.75;6.75;;;;;5.38;56.35;101357.59;4769986;29;46110;-84
2022/04/04 07:12:58;;;;;;;;;7.00;6.75;;;;;5.41;56.34;101350.50;4770301;29;45722;-85
2022/04/04 07:15:24;;;;;;;;;6.25;5.00;;;;;5.41;56.50;101331.47;4770748;29;45740;-86
2022/04/04 07:17:49;;;;;;;;;8.00;7.75;;;;;5.46;56.31;101327.78;4771214;29;45589;-85
2022/04/04 07:20:15;;;;;;;;;6.50;5.00;;;;;5.57;56.15;101342.97;4772034;29;46029;-84
2022/04/04 07:22:42;;;;;;;;;7.50;6.00;;;;;5.61;55.97;101339.38;4772477;29;45507;-85
2022/04/04 07:25:09;;;;;;;;;5.00;5.00;;;;;5.65;55.58;101337.50;4754564;29;45761;-85
2022/04/04 07:30:57;;;;;;;;;8.75;7.25;;;;;5.71;55.69;101326.84;4769993;29;46100;-84
2022/04/04 07:33:22;;;;;;;;;8.50;7.50;;;;;5.81;55.86;101326.44;4770500;29;45927;-83
2022/04/04 07:35:49;;;;;;;;;10.25;7.50;;;;;5.83;55.22;101316.78;4753691;29;45974;-86
2022/04/04 07:38:16;;;;;;;;;11.00;8.00;;;;;5.90;55.19;101323.47;4753440;29;47433;-85
2022/04/04 07:40:41;;;;;;;;;7.75;6.25;;;;;5.96;54.98;101313.75;4769693;29;46082;-86
2022/04/04 07:43:07;;;;;;;;;9.00;7.75;;;;;6.05;55.11;101319.41;4753212;29;45923;-85
2022/04/04 07:45:32;;;;;;;;;11.00;9.00;;;;;6.08;55.13;101318.44;4753157;29;45681;-84
2022/04/04 07:47:58;;;;;;;;;8.00;7.00;;;;;6.10;55.25;101309.66;4769427;29;46726;-84
2022/04/04 07:50:24;;;;;;;;;8.00;8.00;;;;;6.19;55.21;101311.91;4769642;29;46048;-84
2022/04/04 07:52:49;;;;;;;;;5.75;5.00;;;;;6.25;54.72;101319.44;4769653;29;45559;-83
2022/04/04 07:55:16;;;;;;;;;8.50;6.00;;;;;6.30;54.70;101311.44;4769529;29;45479;-87
2022/04/04 08:01:03;;;;;;;;;5.25;5.00;;;;;6.42;54.47;101303.13;4769032;29;46139;-84
2022/04/04 08:03:29;;;;;;;;;5.00;5.00;;;;;6.49;53.70;101303.69;4769402;29;45665;-83
2022/04/04 08:05:55;;;;;;;;;1.00;1.00;;;;;6.52;54.18;101301.81;4769925;29;45484;-84
2022/04/04 08:08:20;;;;;;;;;4.75;3.50;;;;;6.55;53.78;101296.47;4769777;29;46681;-86
2022/04/04 08:10:46;;;;;;;;;8.00;8.00;;;;;6.55;53.17;101283.44;4753552;29;46878;-87
2022/04/04 08:16:33;;;;;;;;;5.00;5.00;;;;;6.72;53.59;101293.97;4769152;29;45571;-85
2022/04/04 08:18:58;;;;;;;;;5.75;5.75;;;;;6.78;53.23;101295.47;4769138;29;46682;-85
2022/04/04 08:21:24;;;;;;;;;6.00;5.50;;;;;6.83;53.06;101290.03;4769191;29;45583;-85
2022/04/04 08:23:49;;;;;;;;;6.00;5.00;;;;;6.88;53.45;101291.53;4753209;29;45757;-84
2022/04/04 08:26:15;;;;;;;;;6.00;6.00;;;;;6.92;52.79;101274.00;4753143;29;45993;-84
2022/04/04 08:28:40;;;;;;;;;4.00;4.00;;;;;6.96;52.95;101275.56;4752675;29;48315;-83
2022/04/04 08:31:06;;;;;;;;;4.25;4.00;;;;;7.01;51.81;101276.22;4768828;29;45526;-84
2022/04/04 08:33:31;;;;;;;;;8.00;6.00;;;;;7.06;52.47;101277.69;4768953;29;45579;-83
2022/04/04 08:36:00;;;;;;;;;5.00;4.00;;;;;7.10;51.72;101274.03;4769279;29;45869;-83
2022/04/04 08:38:25;;;;;;;;;2.75;2.00;;;;;7.13;51.72;101267.81;4768566;29;45927;-84
2022/04/04 08:40:51;;;;;;;;;5.25;4.50;;;;;7.20;51.89;101266.63;4751936;29;47889;-84
2022/04/04 08:46:52;;;;;;;;;7.50;5.75;;;;;7.33;51.51;101286.00;4767326;29;46927;-86
2022/04/04 08:49:17;;;;;;;;;4.00;4.00;;;;;7.39;50.92;101254.44;4768735;29;45503;-83
2022/04/04 08:51:43;;;;;;;;;6.75;5.50;;;;;7.45;51.00;101264.53;4768493;29;45691;-83
2022/04/04 08:54:09;;;;;;;;;4.25;4.00;;;;;7.48;50.36;101247.91;4768632;29;45596;-83
2022/04/04 08:56:34;;;;;;;;;6.00;4.75;;;;;7.53;49.91;101252.00;4768864;29;45639;-82
2022/04/04 08:59:00;;;;;;;;;5.75;5.00;;;;;7.64;50.55;101261.91;4752082;29;48278;-83
2022/04/04 09:01:28;;;;;;;;;5.00;5.00;;;;;7.66;49.58;101236.59;4768609;29;46155;-83
2022/04/04 09:04:00;;;;;;;;;3.25;3.25;;;;;7.78;50.27;101253.41;4752279;29;45871;-83
2022/04/04 09:06:29;;;;;;;;;3.00;2.50;;;;;7.82;49.92;101253.19;4769015;29;45648;-81
2022/04/04 09:08:56;;;;;;;;;3.00;1.00;;;;;7.84;49.34;101253.09;4769412;29;46695;-82
2022/04/04 09:11:21;;;;;;;;;2.75;2.25;;;;;7.92;49.57;101240.53;4768622;29;45947;-83
2022/04/04 09:17:11;;;;;;;;;2.00;2.00;;;;;8.09;48.83;101237.94;4768652;29;45671;-83
2022/04/04 09:19:38;;;;;;;;;2.00;2.00;;;;;8.16;47.92;101233.22;4769828;29;45570;-83
2022/04/04 09:22:06;;;;;;;;;1.00;1.00;;;;;8.24;47.64;101242.34;4769584;29;46216;-81
2022/04/04 09:24:52;;;;;;;;;2.00;2.00;;;;;8.29;47.20;101226.47;4768705;29;45702;-82
2022/04/04 09:27:23;;;;;;;;;1.75;1.75;;;;;8.31;47.11;101232.50;4752600;29;45609;-82
2022/04/04 09:29:51;;;;;;;;;2.00;2.00;;;;;8.35;46.85;101228.78;4768392;29;45699;-84
2022/04/04 09:32:17;;;;;;;;;2.00;2.00;;;;;8.36;46.08;101220.03;4768333;29;46086;-83
2022/04/04 09:34:49;;;;;;;;;2.25;2.00;;;;;8.37;45.76;101221.69;4768588;29;45540;-84
2022/04/04 09:37:16;;;;;;;;;2.00;1.00;;;;;8.42;45.76;101210.09;4768503;29;45681;-83
2022/04/04 09:39:41;;;;;;;;;2.00;1.50;;;;;8.48;44.94;101213.31;4768143;29;45823;-82
2022/04/04 09:42:19;;;;;;;;;2.00;2.00;;;;;8.51;45.10;101214.00;4768129;29;45842;-83
2022/04/04 09:45:09;;;;;;;;;1.00;1.00;;;;;8.57;43.37;101202.38;4768358;29;45809;-81
2022/04/04 09:47:56;;;;;;;;;3.00;1.50;;;;;8.58;44.30;101209.31;4767829;29;46020;-84
2022/04/04 09:50:44;;;;;;;;;1.25;1.00;;;;;8.64;44.60;101201.97;4767218;29;45654;-82
2022/04/04 09:53:17;;;;;;;;;2.00;1.00;;;;;8.70;44.37;101192.97;4694959;30;46070;-83
2022/04/04 09:55:48;;;;;;;;;1.00;1.00;;;;;8.71;43.86;101178.97;4695202;30;45561;-83
2022/04/04 09:58:16;;;;;;;;;2.00;1.00;;;;;8.76;43.33;101182.19;4695240;30;45799;-81
2022/04/04 10:00:44;;;;;;;;;2.00;1.00;;;;;8.80;43.29;101183.69;4694850;30;45538;-83
2022/04/04 10:03:12;;;;;;;;;2.50;0.25;;;;;8.80;43.27;101183.69;4694989;30;46075;-82
2022/04/04 10:05:42;;;;;;;;;4.50;2.00;;;;;8.79;43.32;101185.50;4694970;30;45682;-81
2022/04/04 10:08:09;;;;;;;;;3.00;2.00;;;;;8.82;43.12;101187.91;4695120;30;45724;-81
2022/04/04 10:10:36;;;;;;;;;2.00;1.00;;;;;8.84;42.57;101174.78;4694663;30;46200;-82
2022/04/04 10:13:02;;;;;;;;;2.00;2.00;;;;;8.83;42.76;101175.72;4694731;30;46597;-82
2022/04/04 10:15:27;;;;;;;;;1.50;1.50;;;;;8.90;43.32;101163.16;4694985;30;45863;-81
2022/04/04 10:17:55;;;;;;;;;2.50;2.00;;;;;8.94;43.06;101173.34;4694973;30;45887;-84
2022/04/04 10:20:21;;;;;;;;;2.00;2.00;;;;;9.01;42.63;101163.41;4694632;30;46567;-83
2022/04/04 10:22:50;;;;;;;;;5.00;2.00;;;;;9.00;42.67;101146.88;4694754;30;46367;-84
2022/04/04 10:25:21;;;;;;;;;2.00;2.00;;;;;9.07;43.32;101150.81;4695005;30;45896;-83
2022/04/04 10:27:47;;;;;;;;;2.00;2.00;;;;;9.15;43.68;101142.56;4694495;30;45655;-81
2022/04/04 10:30:16;;;;;;;;;2.00;2.00;;;;;9.23;43.86;101133.34;4724067;29;47619;-83
2022/04/04 10:32:53;;;;;;;;;1.00;1.00;;;;;9.34;42.19;101131.91;4767413;29;46020;-82
2022/04/04 10:35:25;;;;;;;;;2.00;1.00;;;;;9.41;41.82;101141.91;4767885;29;45800;-84
2022/04/04 10:37:51;;;;;;;;;0.00;0.00;;;;;9.47;41.76;101123.25;4768154;29;45718;-85
2022/04/04 10:40:24;;;;;;;;;2.00;2.00;;;;;9.60;41.41;101126.84;4768458;29;45657;-84
2022/04/04 10:43:10;;;;;;;;;0.50;0.25;;;;;9.73;41.86;101128.72;4768599;29;46572;-87
2022/04/04 10:46:09;;;;;;;;;1.00;1.00;;;;;9.81;41.66;101132.56;4767647;29;45575;-84
2022/04/04 10:48:38;;;;;;;;;5.00;2.00;;;;;9.82;40.18;101117.72;4754083;29;45791;-84
2022/04/04 10:51:17;;;;;;;;;2.00;2.00;;;;;9.90;39.49;101123.31;4767276;29;45574;-81
2022/04/04 10:53:47;;;;;;;;;2.00;2.00;;;;;9.98;40.15;101123.72;4772913;29;46220;-82
2022/04/04 10:56:18;;;;;;;;;2.00;2.00;;;;;10.06;40.69;101114.47;4768346;29;45896;-83
2022/04/04 10:58:43;;;;;;;;;1.00;1.00;;;;;10.14;40.73;101110.53;4767338;29;45785;-82
2022/04/04 11:01:20;;;;;;;;;1.00;1.00;;;;;10.20;40.66;101111.03;4751027;29;48455;-83
2022/04/04 11:03:52;;;;;;;;;2.50;2.00;;;;;10.32;40.16;101098.94;4753525;29;46538;-82
2022/04/04 11:09:18;;;;;;;;;2.50;2.00;;;;;10.48;40.50;101092.66;4770154;29;45725;-81
2022/04/04 11:11:50;;;;;;;;;2.00;1.75;;;;;10.55;40.08;101074.78;4753399;29;47724;-81
2022/04/04 11:14:46;;;;;;;;;2.75;2.00;;;;;10.69;40.33;101084.41;4753393;29;46382;-83
2022/04/04 11:17:13;;;;;;;;;2.50;2.50;;;;;10.76;40.59;101070.78;4696830;30;45686;-83
2022/04/04 11:19:57;;;;;;;;;3.00;2.25;;;;;10.86;40.43;101068.41;4697005;30;45682;-84
2022/04/04 11:22:23;;;;;;;;;2.75;1.00;;;;;10.94;40.11;101056.50;4696459;30;46848;-84
2022/04/04 11:24:56;;;;;;;;;1.75;1.25;;;;;11.03;40.39;101055.03;4696855;30;47199;-85
2022/04/04 11:27:25;;;;;;;;;2.50;2.25;;;;;11.07;39.29;101051.25;4697038;30;45977;-85
2022/04/04 11:29:50;;;;;;;;;2.00;2.00;;;;;11.11;39.83;101046.69;4697102;30;45601;-84
2022/04/04 11:32:24;;;;;;;;;3.00;2.50;;;;;11.17;39.48;101054.16;4681932;30;47456;-87
2022/04/04 11:34:50;;;;;;;;;2.75;2.25;;;;;11.16;38.90;101029.69;4696914;30;45612;-84
2022/04/04 11:37:21;;;;;;;;;0.00;0.00;;;;;11.13;38.32;101044.78;4698192;30;45689;-85
2022/04/04 11:39:47;;;;;;;;;2.00;2.00;;;;;11.09;38.24;101053.78;4700801;30;45614;-85
2022/04/04 11:42:14;;;;;;;;;4.00;3.00;;;;;11.04;38.58;101037.53;4697183;30;46450;-85
2022/04/04 11:44:49;;;;;;;;;4.00;2.75;;;;;11.01;39.34;101024.63;4683355;30;46590;-87
2022/04/04 11:47:18;;;;;;;;;4.00;3.00;;;;;11.05;38.74;101034.81;4697556;30;45826;-84
2022/04/04 11:49:44;;;;;;;;;6.00;4.00;;;;;11.10;38.72;101017.00;4682812;30;46114;-86
2022/04/04 11:52:15;;;;;;;;;2.00;1.00;;;;;11.18;39.71;101021.72;4699186;30;46535;-86
2022/04/04 11:54:41;;;;;;;;;3.25;3.00;;;;;11.20;39.46;101012.81;4739870;29;46246;-88
2022/04/04 11:57:08;;;;;;;;;3.00;3.00;;;;;11.25;39.11;101026.44;4776649;29;45919;-85
2022/04/04 11:59:35;;;;;;;;;5.50;4.00;;;;;11.27;39.34;101016.72;4756543;29;45602;-87
2022/04/04 12:02:03;;;;;;;;;6.50;4.00;;;;;11.31;39.41;100997.19;4754229;29;47750;-85
2022/04/04 12:04:29;;;;;;;;;3.50;3.00;;;;;11.38;39.12;101031.72;4753690;29;48222;-84
2022/04/04 12:06:55;;;;;;;;;4.00;3.00;;;;;11.43;39.18;101005.19;4753277;29;45631;-84
2022/04/04 12:09:31;;;;;;;;;4.00;3.00;;;;;11.49;39.31;101002.97;4769852;29;45776;-85
2022/04/04 12:12:12;;;;;;;;;5.00;3.50;;;;;11.56;39.13;100996.34;4769320;29;45761;-86
2022/04/04 12:14:42;;;;;;;;;3.00;3.00;;;;;11.63;38.69;100997.59;4770054;29;45472;-85
2022/04/04 12:17:11;;;;;;;;;4.00;3.25;;;;;11.68;39.56;101007.78;4770326;29;45729;-86
2022/04/04 12:19:44;;;;;;;;;3.00;2.25;;;;;11.74;39.62;100992.47;4769455;29;45550;-87
2022/04/04 12:24:55;;;;;;;;;3.00;2.75;;;;;11.85;39.14;100985.63;4768999;29;45945;-83
2022/04/04 12:27:21;;;;;;;;;4.50;4.00;;;;;11.85;39.31;100980.38;4769214;29;45618;-83
2022/04/04 12:29:47;;;;;;;;;4.25;4.00;;;;;11.86;39.52;100989.94;4769577;29;45904;-84
2022/04/04 12:32:20;;;;;;;;;3.00;3.00;;;;;11.88;38.72;100988.03;4769048;29;46183;-81
2022/04/04 12:34:56;;;;;;;;;6.00;6.00;;;;;11.83;39.09;100991.00;4769418;29;46230;-87
2022/04/04 12:37:41;;;;;;;;;3.25;2.50;;;;;11.80;39.78;100995.63;4753093;29;45611;-82
2022/04/04 12:40:21;;;;;;;;;4.50;3.75;;;;;11.73;39.04;101009.19;4769313;29;45558;-83
2022/04/04 12:42:49;;;;;;;;;3.75;3.00;;;;;11.62;38.96;100992.44;4769050;29;45697;-84
2022/04/04 12:45:17;;;;;;;;;4.00;4.00;;;;;11.49;39.99;100992.47;4768833;29;46136;-85
2022/04/04 12:48:12;;;;;;;;;3.00;3.00;;;;;11.40;40.01;100998.34;4769683;29;45551;-81
2022/04/04 12:50:44;;;;;;;;;5.00;5.00;;;;;11.35;40.26;100980.28;4698027;30;45963;-82